createdAt,value
2023-05-13T00:03:29.823Z,56.92
2023-05-13T00:05:57.140Z,56.85
2023-05-13T00:08:27.112Z,56.36
2023-05-13T00:11:00.408Z,56.57
2023-05-13T00:13:28.156Z,56.52
2023-05-13T00:15:57.730Z,56.68
2023-05-13T00:18:25.020Z,56.57
2023-05-13T00:20:56.538Z,56.84
2023-05-13T00:23:23.654Z,56.60
2023-05-13T00:25:51.040Z,56.59
2023-05-13T00:28:18.171Z,56.40
2023-05-13T00:30:46.374Z,56.34
2023-05-13T00:33:14.081Z,56.38
2023-05-13T00:35:41.308Z,56.33
2023-05-13T00:38:09.255Z,56.58
2023-05-13T00:40:42.152Z,56.28
2023-05-13T00:43:09.360Z,56.46
2023-05-13T00:45:38.669Z,56.34
2023-05-13T00:48:07.770Z,56.43
2023-05-13T00:50:35.348Z,56.55
2023-05-13T00:53:04.871Z,56.67
2023-05-13T00:55:32.638Z,56.53
2023-05-13T00:58:01.146Z,56.70
2023-05-13T01:00:33.564Z,56.66
2023-05-13T01:03:12.248Z,56.71
2023-05-13T01:06:21.927Z,56.95
2023-05-13T01:09:24.606Z,56.45
2023-05-13T01:11:56.344Z,56.27
2023-05-13T01:14:30.200Z,56.28
2023-05-13T01:17:05.473Z,56.39
2023-05-13T01:19:52.178Z,55.96
2023-05-13T01:22:19.754Z,55.99
2023-05-13T01:24:47.052Z,55.68
2023-05-13T01:27:14.858Z,55.64
2023-05-13T01:29:42.619Z,55.78
2023-05-13T01:32:12.319Z,55.56
2023-05-13T01:34:42.009Z,55.40
2023-05-13T01:37:09.725Z,55.55
2023-05-13T01:39:39.303Z,55.71
2023-05-13T01:42:11.954Z,55.45
2023-05-13T01:44:39.400Z,55.80
2023-05-13T01:47:08.878Z,55.45
2023-05-13T01:49:36.603Z,55.68
2023-05-13T01:52:09.388Z,55.42
2023-05-13T01:54:38.414Z,55.74
2023-05-13T01:57:09.825Z,55.70
2023-05-13T01:59:37.377Z,55.50
2023-05-13T02:02:09.074Z,55.41
2023-05-13T02:04:36.290Z,55.26
2023-05-13T02:07:04.593Z,55.16
2023-05-13T02:09:33.017Z,55.33
2023-05-13T02:12:00.552Z,55.34
2023-05-13T02:14:29.011Z,55.30
2023-05-13T02:17:04.853Z,54.96
2023-05-13T02:19:32.540Z,55.02
2023-05-13T02:21:59.681Z,55.08
2023-05-13T02:24:26.987Z,54.28
2023-05-13T02:26:54.769Z,54.69
2023-05-13T02:29:21.871Z,54.60
2023-05-13T02:31:49.074Z,54.56
2023-05-13T02:34:16.449Z,54.45
2023-05-13T02:36:45.957Z,54.28
2023-05-13T02:39:15.608Z,54.40
2023-05-13T02:41:45.786Z,54.70
2023-05-13T02:44:17.616Z,54.41
2023-05-13T02:46:45.736Z,54.52
2023-05-13T02:49:13.091Z,54.46
2023-05-13T02:51:43.352Z,54.62
2023-05-13T02:54:13.015Z,54.48
2023-05-13T02:56:43.187Z,54.48
2023-05-13T02:59:11.360Z,54.59
2023-05-13T03:01:41.879Z,54.86
2023-05-13T03:04:09.054Z,54.98
2023-05-13T03:06:36.116Z,54.42
2023-05-13T03:09:03.242Z,54.61
2023-05-13T03:11:30.954Z,54.64
2023-05-13T03:13:59.283Z,54.81
2023-05-13T03:16:27.012Z,54.88
2023-05-13T03:18:54.787Z,54.90
2023-05-13T03:21:21.850Z,54.78
2023-05-13T03:23:52.473Z,54.88
2023-05-13T03:26:21.990Z,55.46
2023-05-13T03:28:52.176Z,55.43
2023-05-13T03:31:23.332Z,55.57
2023-05-13T03:33:50.808Z,55.18
2023-05-13T03:36:18.414Z,55.81
2023-05-13T03:38:46.292Z,55.37
2023-05-13T03:41:13.586Z,55.40
2023-05-13T03:43:41.300Z,55.23
2023-05-13T03:46:11.699Z,55.14
2023-05-13T03:48:39.103Z,55.10
2023-05-13T03:51:09.323Z,55.60
2023-05-13T03:53:37.003Z,54.79
2023-05-13T03:56:04.331Z,55.54
2023-05-13T03:58:31.508Z,55.14
2023-05-13T04:00:58.636Z,55.35
2023-05-13T04:03:26.962Z,54.98
2023-05-13T04:05:57.344Z,55.27
2023-05-13T04:08:27.336Z,54.79
2023-05-13T04:10:57.797Z,54.90
2023-05-13T04:13:26.470Z,54.93
2023-05-13T04:15:55.665Z,54.96
2023-05-13T04:18:22.879Z,54.61
2023-05-13T04:20:49.935Z,54.87
2023-05-13T04:23:20.013Z,54.56
2023-05-13T04:25:52.109Z,54.40
2023-05-13T04:28:19.795Z,54.52
2023-05-13T04:30:48.609Z,54.35
2023-05-13T04:33:15.749Z,54.73
2023-05-13T04:35:45.486Z,54.25
2023-05-13T04:38:13.458Z,54.44
2023-05-13T04:40:40.685Z,54.63
2023-05-13T04:43:14.371Z,54.68
2023-05-13T04:45:49.450Z,53.99
2023-05-13T04:48:24.244Z,53.90
2023-05-13T04:50:51.570Z,54.18
2023-05-13T04:53:19.216Z,53.97
2023-05-13T04:55:48.997Z,53.97
2023-05-13T04:58:16.813Z,54.07
2023-05-13T05:00:44.209Z,53.98
2023-05-13T05:03:14.613Z,53.79
2023-05-13T05:05:41.843Z,53.99
2023-05-13T05:08:09.978Z,53.99
2023-05-13T05:10:40.422Z,53.92
2023-05-13T05:13:11.322Z,54.17
2023-05-13T05:15:39.659Z,53.79
2023-05-13T05:18:12.088Z,54.20
2023-05-13T05:20:40.299Z,53.99
2023-05-13T05:23:13.610Z,54.16
2023-05-13T05:25:40.768Z,53.95
2023-05-13T05:28:12.312Z,54.39
2023-05-13T05:30:45.177Z,54.47
2023-05-13T05:33:19.107Z,54.76
2023-05-13T05:35:46.752Z,54.40
2023-05-13T05:38:16.654Z,54.69
2023-05-13T05:40:46.513Z,55.03
2023-05-13T05:43:14.844Z,54.96
2023-05-13T05:45:42.734Z,54.78
2023-05-13T05:48:13.478Z,54.70
2023-05-13T05:50:41.527Z,54.79
2023-05-13T05:53:11.049Z,54.69
2023-05-13T05:55:39.604Z,54.65
2023-05-13T05:58:07.766Z,54.48
2023-05-13T06:00:37.390Z,54.45
2023-05-13T06:03:08.026Z,54.25
2023-05-13T06:05:36.262Z,54.09
2023-05-13T06:08:03.659Z,54.00
2023-05-13T06:10:31.213Z,54.00
2023-05-13T06:12:58.418Z,53.64
2023-05-13T06:15:25.945Z,53.37
2023-05-13T06:17:53.247Z,53.63
2023-05-13T06:20:20.673Z,53.98
2023-05-13T06:22:48.381Z,53.45
2023-05-13T06:25:17.663Z,53.91
2023-05-13T06:27:44.739Z,53.30
2023-05-13T06:30:12.272Z,53.40
2023-05-13T06:33:00.288Z,52.69
2023-05-13T06:35:30.265Z,52.19
2023-05-13T06:38:30.623Z,51.83
2023-05-13T06:40:59.639Z,51.54
2023-05-13T06:43:36.755Z,51.96
2023-05-13T06:46:32.751Z,51.60
2023-05-13T06:49:00.568Z,51.38
2023-05-13T06:51:28.784Z,51.07
2023-05-13T06:53:56.124Z,51.07
2023-05-13T06:56:29.277Z,50.65
2023-05-13T06:58:56.622Z,50.31
2023-05-13T07:01:24.689Z,50.16
2023-05-13T07:03:53.944Z,49.84
2023-05-13T07:06:23.605Z,49.45
2023-05-13T07:08:51.572Z,49.57
2023-05-13T07:11:21.472Z,48.74
2023-05-13T07:13:48.754Z,48.99
2023-05-13T07:16:17.864Z,48.80
2023-05-13T07:18:55.512Z,47.87
2023-05-13T07:21:22.883Z,47.76
2023-05-13T07:23:52.806Z,48.09
2023-05-13T07:26:25.471Z,47.27
2023-05-13T07:28:52.763Z,47.54
2023-05-13T07:31:23.167Z,47.93
2023-05-13T07:33:50.549Z,47.98
2023-05-13T07:36:18.703Z,48.71
2023-05-13T07:38:49.015Z,47.63
2023-05-13T07:41:19.189Z,48.37
2023-05-13T07:44:00.046Z,47.25
2023-05-13T07:46:27.714Z,46.95
2023-05-13T07:49:00.165Z,47.32
2023-05-13T07:51:29.879Z,47.50
2023-05-13T07:54:00.155Z,48.35
2023-05-13T07:56:33.831Z,46.36
2023-05-13T07:59:03.057Z,47.86
2023-05-13T08:01:33.476Z,47.21
2023-05-13T08:04:01.028Z,46.21
2023-05-13T08:06:30.402Z,46.83
2023-05-13T08:08:58.761Z,46.28
2023-05-13T08:11:26.530Z,45.22
2023-05-13T08:13:53.728Z,45.35
2023-05-13T08:16:25.746Z,43.37
2023-05-13T08:18:56.063Z,42.88
2023-05-13T08:21:31.904Z,41.99
2023-05-13T08:23:59.367Z,42.38
2023-05-13T08:26:27.137Z,41.85
2023-05-13T08:28:56.230Z,41.99
2023-05-13T08:31:25.311Z,41.76
2023-05-13T08:33:53.874Z,41.47
2023-05-13T08:36:23.051Z,42.59
2023-05-13T08:38:50.176Z,41.82
2023-05-13T08:41:17.533Z,42.04
2023-05-13T08:43:48.021Z,42.15
2023-05-13T08:46:17.229Z,42.29
2023-05-13T08:48:45.062Z,42.34
2023-05-13T08:51:12.992Z,42.37
2023-05-13T08:53:43.925Z,42.72
2023-05-13T08:56:12.075Z,42.29
2023-05-13T08:58:39.222Z,42.21
2023-05-13T09:01:08.007Z,42.67
2023-05-13T09:03:35.524Z,42.68
2023-05-13T09:06:03.725Z,42.57
2023-05-13T09:08:32.846Z,42.94
2023-05-13T09:11:03.442Z,42.99
2023-05-13T09:13:30.647Z,43.25
2023-05-13T09:15:58.182Z,42.14
2023-05-13T09:18:31.313Z,41.24
2023-05-13T09:20:58.826Z,41.47
2023-05-13T09:23:27.192Z,40.85
2023-05-13T09:25:57.570Z,41.63
2023-05-13T09:28:25.101Z,41.37
2023-05-13T09:30:57.143Z,41.26
2023-05-13T09:33:31.888Z,40.73
2023-05-13T09:35:59.969Z,41.04
2023-05-13T09:38:35.053Z,41.49
2023-05-13T09:41:04.092Z,41.06
2023-05-13T09:43:35.026Z,39.85
2023-05-13T09:46:05.182Z,38.83
2023-05-13T09:48:34.143Z,38.55
2023-05-13T09:51:01.965Z,39.41
2023-05-13T09:53:29.739Z,38.89
2023-05-13T09:55:59.023Z,38.53
2023-05-13T09:58:33.793Z,38.59
2023-05-13T10:01:02.476Z,38.26
2023-05-13T10:03:30.207Z,38.20
2023-05-13T10:06:02.949Z,38.08
2023-05-13T10:08:31.090Z,38.34
2023-05-13T10:10:59.181Z,38.26
2023-05-13T10:13:32.345Z,38.91
2023-05-13T10:16:04.428Z,39.03
2023-05-13T10:18:32.437Z,37.95
2023-05-13T10:21:00.743Z,38.25
2023-05-13T10:23:28.810Z,38.26
2023-05-13T10:25:56.644Z,38.11
2023-05-13T10:28:25.910Z,36.93
2023-05-13T10:30:55.482Z,37.36
2023-05-13T10:33:27.679Z,37.92
2023-05-13T10:36:32.584Z,37.83
2023-05-13T10:39:18.666Z,37.81
2023-05-13T10:42:13.970Z,38.24
2023-05-13T10:44:44.232Z,39.62
2023-05-13T10:47:11.849Z,39.33
2023-05-13T10:49:39.943Z,40.02
2023-05-13T10:52:10.955Z,40.13
2023-05-13T10:54:42.375Z,40.06
2023-05-13T10:57:12.505Z,39.68
2023-05-13T11:00:20.071Z,39.68
2023-05-13T11:02:50.841Z,40.86
2023-05-13T11:05:22.590Z,39.66
2023-05-13T11:08:03.356Z,39.47
2023-05-13T11:10:31.448Z,40.06
2023-05-13T11:13:23.977Z,39.68
2023-05-13T11:15:55.700Z,38.11
2023-05-13T11:18:32.997Z,37.72
2023-05-13T11:21:07.963Z,37.82
2023-05-13T11:23:56.086Z,37.22
2023-05-13T11:26:23.570Z,36.89
2023-05-13T11:28:54.938Z,36.04
2023-05-13T11:31:26.209Z,36.83
2023-05-13T11:34:15.905Z,35.55
2023-05-13T11:36:49.910Z,35.60
2023-05-13T11:39:22.657Z,35.37
2023-05-13T11:41:54.137Z,34.76
2023-05-13T11:44:23.475Z,34.03
2023-05-13T11:47:05.306Z,32.90
2023-05-13T11:49:43.469Z,34.68
2023-05-13T11:52:13.091Z,34.45
2023-05-13T11:54:54.445Z,34.38
2023-05-13T11:57:26.962Z,36.17
2023-05-13T12:00:06.932Z,35.30
2023-05-13T12:02:40.911Z,36.08
2023-05-13T12:05:12.937Z,36.75
2023-05-13T12:07:40.537Z,37.31
2023-05-13T12:10:10.574Z,37.08
2023-05-13T12:12:44.002Z,36.96
2023-05-13T12:15:13.975Z,37.46
2023-05-13T12:17:41.407Z,37.58
2023-05-13T12:20:08.847Z,37.14
2023-05-13T12:22:37.897Z,37.44
2023-05-13T12:25:46.853Z,36.79
2023-05-13T12:28:22.828Z,37.23
2023-05-13T12:30:52.541Z,38.23
2023-05-13T12:33:25.221Z,37.99
2023-05-13T12:35:55.032Z,39.00
2023-05-13T12:38:24.912Z,39.72
2023-05-13T12:40:53.261Z,38.95
2023-05-13T12:43:21.014Z,39.03
2023-05-13T12:45:54.259Z,39.42
2023-05-13T12:48:25.174Z,39.93
2023-05-13T12:50:52.798Z,39.06
2023-05-13T12:53:23.110Z,39.93
2023-05-13T12:55:50.870Z,39.41
2023-05-13T12:58:20.080Z,39.00
2023-05-13T13:00:47.479Z,38.84
2023-05-13T13:03:15.177Z,38.44
2023-05-13T13:05:42.548Z,38.60
2023-05-13T13:08:09.826Z,37.99
2023-05-13T13:10:37.004Z,37.89
2023-05-13T13:13:04.242Z,37.45
2023-05-13T13:15:31.336Z,37.71
2023-05-13T13:17:58.440Z,37.01
2023-05-13T13:20:25.579Z,37.77
2023-05-13T13:22:55.089Z,37.16
2023-05-13T13:25:22.758Z,38.27
2023-05-13T13:27:49.903Z,37.91
2023-05-13T13:30:17.017Z,39.08
2023-05-13T13:32:44.100Z,39.07
2023-05-13T13:35:11.272Z,37.78
2023-05-13T13:37:38.524Z,37.51
2023-05-13T13:40:06.519Z,37.81
2023-05-13T13:42:43.325Z,38.45
2023-05-13T13:45:17.543Z,38.35
2023-05-13T13:47:45.366Z,38.45
2023-05-13T13:50:12.613Z,39.65
2023-05-13T13:52:39.741Z,40.45
2023-05-13T13:55:07.949Z,40.41
2023-05-13T13:57:35.572Z,40.30
2023-05-13T14:00:02.914Z,40.44
2023-05-13T14:02:32.088Z,39.48
2023-05-13T14:04:59.352Z,39.84
2023-05-13T14:07:26.530Z,41.05
2023-05-13T14:09:53.757Z,41.14
2023-05-13T14:12:20.976Z,41.49
2023-05-13T14:14:48.241Z,42.66
2023-05-13T14:17:16.642Z,41.67
2023-05-13T14:19:43.781Z,41.63
2023-05-13T14:22:10.989Z,41.97
2023-05-13T14:24:43.730Z,42.27
2023-05-13T14:27:10.884Z,41.95
2023-05-13T14:29:38.032Z,42.04
2023-05-13T14:32:05.793Z,42.40
2023-05-13T14:34:34.605Z,44.03
2023-05-13T14:37:01.708Z,43.50
2023-05-13T14:39:28.790Z,42.90
2023-05-13T14:41:56.418Z,43.03
2023-05-13T14:44:23.620Z,43.25
2023-05-13T14:46:54.676Z,43.52
2023-05-13T14:49:22.185Z,43.13
2023-05-13T14:51:49.357Z,43.68
2023-05-13T14:54:19.401Z,43.89
2023-05-13T14:56:50.035Z,43.09
2023-05-13T14:59:17.402Z,42.73
2023-05-13T15:01:50.014Z,42.81
2023-05-13T15:04:19.814Z,42.60
2023-05-13T15:06:47.447Z,43.16
2023-05-13T15:09:14.696Z,43.29
2023-05-13T15:11:44.798Z,43.81
2023-05-13T15:14:12.026Z,42.93
2023-05-13T15:16:39.245Z,43.04
2023-05-13T15:19:09.794Z,43.01
2023-05-13T15:21:37.063Z,44.15
2023-05-13T15:24:04.263Z,43.41
2023-05-13T15:26:34.486Z,43.83
2023-05-13T15:29:01.935Z,45.22
2023-05-13T15:31:31.930Z,44.19
2023-05-13T15:33:59.672Z,44.17
2023-05-13T15:36:29.320Z,44.29
2023-05-13T15:38:56.562Z,44.11
2023-05-13T15:41:23.764Z,44.98
2023-05-13T15:43:50.996Z,44.88
2023-05-13T15:46:18.277Z,44.38
2023-05-13T15:48:45.462Z,45.34
2023-05-13T15:51:12.556Z,45.02
2023-05-13T15:53:40.054Z,46.02
2023-05-13T15:56:07.390Z,45.74
2023-05-13T15:58:37.000Z,46.84
2023-05-13T16:01:09.392Z,46.86
2023-05-13T16:03:38.693Z,45.86
2023-05-13T16:06:06.687Z,46.40
2023-05-13T16:08:34.097Z,45.54
2023-05-13T16:11:01.343Z,45.51
2023-05-13T16:13:33.760Z,44.54
2023-05-13T16:16:01.180Z,45.46
2023-05-13T16:18:28.599Z,44.78
2023-05-13T16:20:58.921Z,45.18
2023-05-13T16:23:29.545Z,44.92
2023-05-13T16:26:08.298Z,43.95
2023-05-13T16:28:36.163Z,43.46
2023-05-13T16:31:03.583Z,42.42
2023-05-13T16:33:37.054Z,42.53
2023-05-13T16:36:05.543Z,42.56
2023-05-13T16:38:35.459Z,42.36
2023-05-13T16:41:02.801Z,42.56
2023-05-13T16:43:30.169Z,42.57
2023-05-13T16:45:57.388Z,40.74
2023-05-13T16:48:29.383Z,41.21
2023-05-13T16:50:59.786Z,41.18
2023-05-13T16:53:29.573Z,40.96
2023-05-13T16:55:57.361Z,41.60
2023-05-13T16:58:32.011Z,41.00
2023-05-13T17:01:02.002Z,41.85
2023-05-13T17:03:29.840Z,40.97
2023-05-13T17:05:59.845Z,41.63
2023-05-13T17:08:30.862Z,41.41
2023-05-13T17:11:14.163Z,40.93
2023-05-13T17:13:46.428Z,42.17
2023-05-13T17:16:16.283Z,43.50
2023-05-13T17:18:43.455Z,42.60
2023-05-13T17:21:10.714Z,43.05
2023-05-13T17:23:38.182Z,43.03
2023-05-13T17:26:12.146Z,43.34
2023-05-13T17:28:42.950Z,42.62
2023-05-13T17:31:10.227Z,43.39
2023-05-13T17:33:37.316Z,44.88
2023-05-13T17:36:07.906Z,44.51
2023-05-13T17:38:38.203Z,43.79
2023-05-13T17:41:05.835Z,43.83
2023-05-13T17:43:33.184Z,44.76
2023-05-13T17:46:03.917Z,44.35
2023-05-13T17:48:33.272Z,44.62
2023-05-13T17:51:07.158Z,44.49
2023-05-13T17:53:35.143Z,44.60
2023-05-13T17:56:02.448Z,45.45
2023-05-13T17:58:29.679Z,47.90
2023-05-13T18:00:56.950Z,46.66
2023-05-13T18:03:24.796Z,47.05
2023-05-13T18:05:52.082Z,47.10
2023-05-13T18:08:19.326Z,47.69
2023-05-13T18:10:47.810Z,47.42
2023-05-13T18:13:15.157Z,48.92
2023-05-13T18:15:42.324Z,47.75
2023-05-13T18:18:12.626Z,48.11
2023-05-13T18:20:42.335Z,48.59
2023-05-13T18:23:16.973Z,48.97
2023-05-13T18:25:55.080Z,49.96
2023-05-13T18:28:23.394Z,48.19
2023-05-13T18:30:50.632Z,47.91
2023-05-13T18:33:20.615Z,48.34
2023-05-13T18:35:49.017Z,49.27
2023-05-13T18:38:16.475Z,48.91
2023-05-13T18:40:45.990Z,48.82
2023-05-13T18:43:16.489Z,49.42
2023-05-13T18:45:48.928Z,49.01
2023-05-13T18:48:19.074Z,49.56
2023-05-13T18:50:46.413Z,48.57
2023-05-13T18:53:13.685Z,49.64
2023-05-13T18:55:43.712Z,49.77
2023-05-13T18:58:17.542Z,48.80
2023-05-13T19:00:46.616Z,48.63
2023-05-13T19:03:14.086Z,47.63
2023-05-13T19:05:48.784Z,47.05
2023-05-13T19:08:18.816Z,47.19
2023-05-13T19:10:48.909Z,48.20
2023-05-13T19:13:19.809Z,48.26
2023-05-13T19:15:47.123Z,48.77
2023-05-13T19:18:14.343Z,49.93
2023-05-13T19:20:41.813Z,49.98
2023-05-13T19:23:08.921Z,49.50
2023-05-13T19:25:41.155Z,49.88
2023-05-13T19:28:12.715Z,50.63
2023-05-13T19:30:40.302Z,51.34
2023-05-13T19:33:08.269Z,52.78
2023-05-13T19:35:36.804Z,53.06
2023-05-13T19:38:04.195Z,53.34
2023-05-13T19:40:31.351Z,55.34
2023-05-13T19:42:58.560Z,55.89
2023-05-13T19:45:26.013Z,57.35
2023-05-13T19:47:53.060Z,56.85
2023-05-13T19:50:20.375Z,56.89
2023-05-13T19:52:47.492Z,56.17
2023-05-13T19:55:14.556Z,56.70
2023-05-13T19:57:42.560Z,56.44
2023-05-13T20:00:14.191Z,56.40
2023-05-13T20:02:41.719Z,56.89
2023-05-13T20:05:09.310Z,55.86
2023-05-13T20:07:36.488Z,56.85
2023-05-13T20:10:06.416Z,56.57
2023-05-13T20:12:33.631Z,56.05
2023-05-13T20:15:05.101Z,57.08
2023-05-13T20:17:32.460Z,56.34
2023-05-13T20:19:59.731Z,56.34
2023-05-13T20:22:26.917Z,55.88
2023-05-13T20:24:54.538Z,56.53
2023-05-13T20:27:21.684Z,56.79
2023-05-13T20:29:49.452Z,56.18
2023-05-13T20:32:25.036Z,55.88
2023-05-13T20:34:52.806Z,56.19
2023-05-13T20:37:22.685Z,56.67
2023-05-13T20:39:50.856Z,56.63
2023-05-13T20:42:17.928Z,56.31
2023-05-13T20:44:46.700Z,56.33
2023-05-13T20:47:14.363Z,56.20
2023-05-13T20:49:44.758Z,56.65
2023-05-13T20:52:12.104Z,56.02
2023-05-13T20:54:39.209Z,56.80
2023-05-13T20:57:10.852Z,56.02
2023-05-13T20:59:37.996Z,56.09
2023-05-13T21:02:05.262Z,56.50
2023-05-13T21:04:32.478Z,56.12
2023-05-13T21:06:59.561Z,56.69
2023-05-13T21:09:26.745Z,56.25
2023-05-13T21:11:53.893Z,57.31
2023-05-13T21:14:21.282Z,56.41
2023-05-13T21:16:49.055Z,56.40
2023-05-13T21:19:33.960Z,56.90
2023-05-13T21:22:05.243Z,56.38
2023-05-13T21:24:32.252Z,56.26
2023-05-13T21:26:59.260Z,56.54
2023-05-13T21:29:30.466Z,55.87
2023-05-13T21:31:57.590Z,56.79
2023-05-13T21:34:24.782Z,56.26
2023-05-13T21:36:52.768Z,56.77
2023-05-13T21:39:19.950Z,56.98
2023-05-13T21:41:47.900Z,55.82
2023-05-13T21:44:15.043Z,55.54
2023-05-13T21:46:42.449Z,55.66
2023-05-13T21:49:09.790Z,56.02
2023-05-13T21:51:37.145Z,55.52
2023-05-13T21:54:04.206Z,55.95
2023-05-13T21:56:31.316Z,55.26
2023-05-13T21:58:58.349Z,55.16
2023-05-13T22:01:25.675Z,54.73
2023-05-13T22:03:52.956Z,54.88
2023-05-13T22:06:20.025Z,54.78
2023-05-13T22:08:47.405Z,55.09
2023-05-13T22:11:14.706Z,55.14
2023-05-13T22:13:42.390Z,55.66
2023-05-13T22:16:14.482Z,55.66
2023-05-13T22:18:42.121Z,56.12
2023-05-13T22:21:09.249Z,56.05
2023-05-13T22:23:36.503Z,55.82
2023-05-13T22:26:04.130Z,56.16
2023-05-13T22:28:31.322Z,56.24
2023-05-13T22:30:58.456Z,56.60
2023-05-13T22:33:25.844Z,56.18
2023-05-13T22:35:53.095Z,56.95
2023-05-13T22:38:21.148Z,56.29
2023-05-13T22:40:48.416Z,56.25
2023-05-13T22:43:15.620Z,56.59
2023-05-13T22:45:43.230Z,56.41
2023-05-13T22:48:13.439Z,56.36
2023-05-13T22:50:41.234Z,56.02
2023-05-13T22:53:08.341Z,56.31
2023-05-13T22:55:37.826Z,56.05
2023-05-13T22:58:04.998Z,55.92
2023-05-13T23:00:32.118Z,55.88
2023-05-13T23:03:01.642Z,55.54
2023-05-13T23:05:28.779Z,55.41
2023-05-13T23:07:58.132Z,55.48
2023-05-13T23:10:25.366Z,55.49
2023-05-13T23:12:52.525Z,55.66
2023-05-13T23:15:21.253Z,55.71
2023-05-13T23:17:48.468Z,55.81
2023-05-13T23:20:15.589Z,55.82
2023-05-13T23:22:42.777Z,55.66
2023-05-13T23:25:10.364Z,55.60
2023-05-13T23:27:37.433Z,55.17
2023-05-13T23:30:04.941Z,55.12
2023-05-13T23:32:32.076Z,55.00
2023-05-13T23:34:59.191Z,55.12
2023-05-13T23:37:26.340Z,55.72
2023-05-13T23:39:53.444Z,55.52
2023-05-13T23:42:21.848Z,55.31
2023-05-13T23:44:49.640Z,55.52
2023-05-13T23:47:17.506Z,55.34
2023-05-13T23:49:47.775Z,55.31
2023-05-13T23:52:14.984Z,55.47
2023-05-13T23:54:42.622Z,55.40
2023-05-13T23:57:09.784Z,55.26
2023-05-13T23:59:36.870Z,55.23
